Terminal Aerodrome Forecast
Issued by NWS

Home | Current Version | Previous Version | Text Only | Print | Product List | Glossary On
Versions: 1 2 3 4 5 6 7 8 9 10 11 12 13 14 15
910
FTUS46 KLOX 061421 AAA
TAFPRB
TAF AMD
KPRB 061421Z 0614/0712 VRB03KT P6SM SKC
     FM062100 09012KT P6SM SKC
     FM070400 VRB03KT P6SM SKC
     FM071000 VRB03KT 6SM BR SKC=

USA.gov is the U.S. government's official web portal to all federal, state and local government web resources and services.